Time;durP1;ratioP1;P1;durP2;ratioP2;P2;SDS_P1;SDS_P2;PMS_P1;PMS_P2;Temp;Humidity;BMP_temperature;BMP_pressure;BME280_temperature;BME280_humidity;BME280_pressure;Samples;Min_cycle;Max_cycle;Signal;HPM_P1;HPM_P2
2022/09/07 00:00:36;;;;;;;22.80;21.27;;;20.60;79.20;;;;;;5104084;27;20557;-71
2022/09/07 00:03:04;;;;;;;22.87;21.60;;;20.60;79.00;;;;;;5102207;27;20565;-72
2022/09/07 00:05:32;;;;;;;23.87;22.50;;;20.60;79.10;;;;;;5106923;27;20994;-71
2022/09/07 00:08:00;;;;;;;22.50;21.50;;;20.60;79.10;;;;;;5097334;27;20477;-72
2022/09/07 00:10:27;;;;;;;22.87;21.80;;;20.70;78.30;;;;;;5106693;27;20556;-72
2022/09/07 00:12:54;;;;;;;22.40;21.10;;;20.70;78.00;;;;;;5096379;27;20906;-72
2022/09/07 00:15:22;;;;;;;22.43;21.33;;;20.80;77.40;;;;;;5108380;27;20551;-72
2022/09/07 00:17:49;;;;;;;22.47;21.27;;;20.80;77.20;;;;;;5097455;27;20532;-74
2022/09/07 00:20:18;;;;;;;23.43;22.30;;;20.80;77.20;;;;;;5106026;27;20484;-72
2022/09/07 00:22:45;;;;;;;23.60;22.30;;;20.80;76.80;;;;;;5106824;28;20568;-73
2022/09/07 00:25:12;;;;;;;22.80;21.60;;;20.80;77.00;;;;;;5095379;27;20489;-72
2022/09/07 00:27:40;;;;;;;23.97;22.60;;;20.80;76.80;;;;;;5103103;27;21020;-71
2022/09/07 00:30:07;;;;;;;24.00;22.80;;;20.90;76.60;;;;;;5097252;27;20488;-71
2022/09/07 00:32:35;;;;;;;24.10;22.90;;;20.90;76.90;;;;;;5106105;28;20564;-71
2022/09/07 00:35:02;;;;;;;26.10;24.60;;;20.90;77.10;;;;;;5096147;28;20632;-71
2022/09/07 00:37:30;;;;;;;24.73;23.40;;;20.80;77.30;;;;;;5091431;27;20541;-71
2022/09/07 00:39:57;;;;;;;24.37;22.97;;;20.90;76.90;;;;;;5096743;27;20488;-71
2022/09/07 00:42:24;;;;;;;26.23;24.90;;;20.90;76.60;;;;;;5106499;27;20632;-71
2022/09/07 00:45:04;;;;;;;25.70;24.43;;;21.00;76.30;;;;;;5098823;28;20537;-73
2022/09/07 00:47:39;;;;;;;25.80;24.60;;;21.00;76.30;;;;;;5104203;28;20478;-72
2022/09/07 00:50:13;;;;;;;24.53;23.30;;;21.00;76.30;;;;;;5097836;27;20961;-72
2022/09/07 00:52:44;;;;;;;23.60;22.50;;;21.00;76.50;;;;;;5105889;28;20555;-72
2022/09/07 00:55:14;;;;;;;24.77;23.67;;;21.00;76.80;;;;;;5100631;27;20953;-72
2022/09/07 00:57:46;;;;;;;25.67;24.40;;;20.90;76.90;;;;;;5107637;27;20528;-72
2022/09/07 01:00:13;;;;;;;24.80;23.50;;;21.00;76.50;;;;;;5099965;27;20549;-69
2022/09/07 01:02:41;;;;;;;24.70;23.37;;;21.00;76.30;;;;;;5097788;27;20495;-69
2022/09/07 01:05:14;;;;;;;24.00;22.80;;;21.00;76.50;;;;;;5105493;28;20462;-70
2022/09/07 01:07:44;;;;;;;25.63;24.20;;;21.00;77.10;;;;;;5107120;27;20573;-70
2022/09/07 01:10:11;;;;;;;27.57;26.10;;;20.90;77.60;;;;;;5105715;27;20454;-70
2022/09/07 01:12:38;;;;;;;25.40;24.30;;;20.80;78.00;;;;;;5106946;28;20577;-70
2022/09/07 01:15:07;;;;;;;27.50;26.00;;;20.80;77.90;;;;;;5097388;27;20460;-70
2022/09/07 01:17:42;;;;;;;27.57;26.17;;;20.80;77.70;;;;;;5099189;27;20875;-70
2022/09/07 01:20:48;;;;;;;26.63;25.33;;;20.80;77.50;;;;;;5098385;27;20533;-71
2022/09/07 01:23:43;;;;;;;27.63;26.23;;;20.90;77.50;;;;;;5103025;28;20476;-71
2022/09/07 01:26:43;;;;;;;26.07;24.87;;;20.90;77.40;;;;;;5098721;28;20489;-71
2022/09/07 01:29:19;;;;;;;25.10;23.90;;;20.90;77.30;;;;;;5097138;27;20953;-72
2022/09/07 01:31:56;;;;;;;25.73;24.40;;;20.80;77.70;;;;;;5098321;28;20571;-72
2022/09/07 01:34:25;;;;;;;26.60;24.93;;;20.90;77.40;;;;;;5099985;27;20536;-72
2022/09/07 01:36:59;;;;;;;25.13;23.73;;;20.90;77.50;;;;;;5106341;28;22407;-71
2022/09/07 01:39:39;;;;;;;25.23;24.03;;;20.90;77.50;;;;;;5102263;28;20460;-71
2022/09/07 01:42:12;;;;;;;26.50;25.20;;;20.90;77.30;;;;;;5103445;27;20468;-72
2022/09/07 01:44:46;;;;;;;26.07;24.77;;;21.00;77.00;;;;;;5101440;28;20487;-72
2022/09/07 01:47:17;;;;;;;25.87;24.67;;;21.00;77.00;;;;;;5100811;28;20570;-71
2022/09/07 01:49:48;;;;;;;25.70;24.50;;;21.00;77.00;;;;;;5100835;28;20554;-72
2022/09/07 01:52:22;;;;;;;24.83;23.60;;;21.10;76.70;;;;;;5096608;27;20482;-72
2022/09/07 01:54:54;;;;;;;25.87;24.47;;;21.10;76.70;;;;;;5094047;28;20489;-72
2022/09/07 01:57:28;;;;;;;26.37;24.83;;;21.20;76.60;;;;;;5104705;27;20618;-71
2022/09/07 02:00:03;;;;;;;25.67;24.10;;;21.20;76.60;;;;;;5090904;28;20577;-73
2022/09/07 02:02:34;;;;;;;27.03;25.70;;;21.20;76.90;;;;;;5105075;27;20504;-72
2022/09/07 02:05:05;;;;;;;25.40;24.20;;;21.10;77.10;;;;;;5104516;28;21066;-71
2022/09/07 02:07:40;;;;;;;27.27;25.57;;;21.10;77.20;;;;;;5101911;28;20545;-71
2022/09/07 02:10:11;;;;;;;26.40;25.00;;;21.20;77.10;;;;;;5089844;28;20536;-71
2022/09/07 02:12:45;;;;;;;32.20;30.57;;;21.20;77.20;;;;;;5103690;28;20563;-74
2022/09/07 02:15:16;;;;;;;25.80;24.50;;;21.10;77.40;;;;;;5099577;28;20528;-71
2022/09/07 02:17:48;;;;;;;35.50;33.77;;;21.10;77.50;;;;;;5097621;28;21167;-72
2022/09/07 02:20:20;;;;;;;28.27;26.87;;;21.10;77.90;;;;;;5106900;28;20452;-71
2022/09/07 02:22:53;;;;;;;31.17;29.57;;;21.00;78.10;;;;;;5106479;28;20481;-72
2022/09/07 02:25:23;;;;;;;25.40;24.20;;;21.00;78.10;;;;;;5104851;28;20548;-72
2022/09/07 02:27:54;;;;;;;40.83;38.93;;;21.00;78.00;;;;;;5100045;28;20474;-72
2022/09/07 02:30:22;;;;;;;30.30;28.30;;;21.10;77.90;;;;;;5096506;28;20954;-75
2022/09/07 02:32:49;;;;;;;27.00;25.40;;;21.10;77.90;;;;;;5105875;28;20556;-71
2022/09/07 02:35:16;;;;;;;26.90;25.70;;;21.10;77.90;;;;;;5102975;28;20449;-73
2022/09/07 02:37:44;;;;;;;30.60;28.97;;;21.10;78.10;;;;;;5102392;28;20452;-71
2022/09/07 02:40:13;;;;;;;26.03;24.73;;;21.10;78.30;;;;;;5090839;28;20549;-71
2022/09/07 02:42:41;;;;;;;27.20;25.80;;;21.10;78.30;;;;;;5107472;28;20800;-72
2022/09/07 02:45:11;;;;;;;27.00;25.43;;;21.10;78.40;;;;;;5096731;28;20553;-72
2022/09/07 02:47:52;;;;;;;29.37;27.77;;;21.00;78.70;;;;;;5102683;28;20570;-72
2022/09/07 02:50:35;;;;;;;23.70;22.50;;;21.10;78.60;;;;;;5104166;28;20488;-71
2022/09/07 02:53:22;;;;;;;38.87;36.70;;;21.10;78.70;;;;;;5099387;28;20630;-72
2022/09/07 02:56:00;;;;;;;25.03;23.73;;;20.90;79.20;;;;;;5098796;28;21000;-74
2022/09/07 02:58:34;;;;;;;24.73;23.43;;;20.90;79.40;;;;;;5101191;28;20454;-71
2022/09/07 03:01:08;;;;;;;25.47;24.03;;;20.80;79.80;;;;;;5103476;28;20452;-72
2022/09/07 03:03:44;;;;;;;24.23;23.10;;;20.80;80.00;;;;;;5105216;28;20461;-74
2022/09/07 03:06:22;;;;;;;31.10;29.43;;;20.90;79.90;;;;;;5097987;28;20458;-71
2022/09/07 03:08:53;;;;;;;28.60;27.30;;;20.90;79.90;;;;;;5108257;28;20478;-69
2022/09/07 03:11:20;;;;;;;61.20;58.40;;;20.90;79.90;;;;;;5099012;27;20541;-70
2022/09/07 03:13:47;;;;;;;25.60;24.20;;;20.90;79.90;;;;;;5108284;28;20546;-71
2022/09/07 03:16:15;;;;;;;33.30;31.30;;;20.90;79.90;;;;;;5108711;27;20544;-72
2022/09/07 03:18:44;;;;;;;32.23;30.70;;;20.90;80.10;;;;;;5105945;27;20461;-74
2022/09/07 03:21:11;;;;;;;34.47;32.63;;;20.90;80.20;;;;;;5106597;27;20458;-71
2022/09/07 03:23:38;;;;;;;49.77;46.97;;;20.90;80.20;;;;;;5107462;27;20457;-71
2022/09/07 03:26:05;;;;;;;25.87;24.50;;;20.90;80.30;;;;;;5107798;28;21065;-72
2022/09/07 03:28:32;;;;;;;56.07;53.33;;;20.80;80.50;;;;;;5106305;28;20562;-72
2022/09/07 03:31:00;;;;;;;36.87;34.90;;;20.80;80.70;;;;;;5097706;28;21029;-72
2022/09/07 03:33:27;;;;;;;43.00;40.97;;;20.80;80.90;;;;;;5101999;27;20483;-71
2022/09/07 03:36:01;;;;;;;27.10;25.80;;;20.80;81.10;;;;;;5109146;27;20540;-72
2022/09/07 03:38:29;;;;;;;25.60;24.50;;;20.80;81.20;;;;;;5103057;27;20481;-72
2022/09/07 03:41:00;;;;;;;38.43;36.40;;;20.80;81.30;;;;;;5104819;27;20460;-71
2022/09/07 03:43:28;;;;;;;52.97;50.27;;;20.70;81.90;;;;;;5108408;28;20996;-72
2022/09/07 03:45:59;;;;;;;23.30;22.00;;;20.60;82.10;;;;;;5106260;27;20942;-71
2022/09/07 03:48:26;;;;;;;30.37;28.63;;;20.60;82.40;;;;;;5099403;28;20478;-73
2022/09/07 03:51:02;;;;;;;26.70;25.17;;;20.50;82.60;;;;;;5105104;28;20972;-74
2022/09/07 03:53:31;;;;;;;50.87;48.40;;;20.50;82.70;;;;;;5106485;27;20570;-72
2022/09/07 03:55:59;;;;;;;32.20;30.57;;;20.40;82.90;;;;;;5104112;27;20883;-72
2022/09/07 03:58:28;;;;;;;47.70;45.33;;;20.40;82.90;;;;;;5106962;27;20445;-73
2022/09/07 04:00:55;;;;;;;32.40;30.80;;;20.40;83.00;;;;;;5102011;27;20460;-72
2022/09/07 04:03:22;;;;;;;25.70;24.50;;;20.40;83.20;;;;;;5109165;28;20555;-71
2022/09/07 04:05:49;;;;;;;33.80;32.30;;;20.40;83.60;;;;;;5105263;27;20532;-70
2022/09/07 04:08:18;;;;;;;59.73;57.27;;;20.30;83.70;;;;;;5095548;28;20560;-72
2022/09/07 04:10:44;;;;;;;24.53;23.30;;;20.30;83.80;;;;;;5103100;28;21108;-71
2022/09/07 04:13:11;;;;;;;35.87;34.17;;;20.20;84.20;;;;;;5107315;27;20483;-72
2022/09/07 04:15:38;;;;;;;22.83;21.50;;;20.10;84.60;;;;;;5106004;27;20556;-72
2022/09/07 04:18:05;;;;;;;25.97;24.50;;;20.10;84.80;;;;;;5104258;27;20657;-72
2022/09/07 04:20:32;;;;;;;23.63;22.33;;;20.10;84.80;;;;;;5103913;27;20453;-74
2022/09/07 04:22:59;;;;;;;33.20;31.50;;;20.10;84.90;;;;;;5107064;27;20560;-71
2022/09/07 04:25:27;;;;;;;23.30;22.10;;;20.00;85.10;;;;;;5101989;27;20539;-73
2022/09/07 04:27:56;;;;;;;45.57;43.47;;;20.00;85.20;;;;;;5108491;27;20472;-75
2022/09/07 04:30:23;;;;;;;25.00;23.47;;;20.00;85.20;;;;;;5099935;27;20584;-74
2022/09/07 04:32:50;;;;;;;22.83;21.53;;;20.00;85.10;;;;;;5093282;27;20572;-69
2022/09/07 04:35:17;;;;;;;20.53;19.43;;;20.00;85.40;;;;;;5101978;27;20544;-69
2022/09/07 04:37:44;;;;;;;30.87;29.17;;;20.00;85.40;;;;;;5106677;27;21027;-69
2022/09/07 04:40:12;;;;;;;36.90;34.90;;;20.00;85.60;;;;;;5091898;27;20920;-69
2022/09/07 04:42:40;;;;;;;42.07;40.07;;;19.90;85.80;;;;;;5103542;28;20584;-70
2022/09/07 04:45:08;;;;;;;24.70;23.23;;;19.90;85.90;;;;;;5095018;27;20455;-70
2022/09/07 04:47:34;;;;;;;30.37;28.70;;;19.80;86.20;;;;;;5092899;27;20569;-70
2022/09/07 04:50:01;;;;;;;27.13;25.53;;;19.80;86.20;;;;;;5094348;27;20588;-69
2022/09/07 04:52:28;;;;;;;22.80;21.60;;;19.80;86.20;;;;;;5097580;27;20509;-74
2022/09/07 04:54:56;;;;;;;20.10;18.67;;;19.80;86.40;;;;;;5100134;28;20453;-73
2022/09/07 04:57:25;;;;;;;20.43;19.33;;;19.70;86.50;;;;;;5109495;27;20462;-74
2022/09/07 04:59:54;;;;;;;21.07;19.67;;;19.70;86.80;;;;;;5102829;28;20533;-70
2022/09/07 05:02:21;;;;;;;40.97;38.97;;;19.60;87.20;;;;;;5103992;27;21048;-69
2022/09/07 05:04:48;;;;;;;24.60;22.97;;;19.60;87.30;;;;;;5109228;27;20529;-70
2022/09/07 05:07:14;;;;;;;21.77;20.47;;;19.60;87.20;;;;;;5109297;28;20476;-69
2022/09/07 05:09:42;;;;;;;40.90;38.83;;;19.60;87.20;;;;;;5100716;28;21073;-69
2022/09/07 05:12:09;;;;;;;23.37;21.83;;;19.60;87.10;;;;;;5103437;27;20479;-69
2022/09/07 05:14:36;;;;;;;41.90;39.87;;;19.60;87.00;;;;;;5107145;28;20987;-69
2022/09/07 05:17:05;;;;;;;39.53;37.43;;;19.70;87.00;;;;;;5105467;28;21020;-73
2022/09/07 05:19:32;;;;;;;32.77;31.33;;;19.70;86.90;;;;;;5103615;27;20499;-69
2022/09/07 05:21:59;;;;;;;20.43;19.30;;;19.70;86.80;;;;;;5105175;27;20552;-68
2022/09/07 05:24:26;;;;;;;19.50;18.10;;;19.70;86.90;;;;;;5102109;28;20532;-69
2022/09/07 05:26:53;;;;;;;23.10;21.60;;;19.70;86.90;;;;;;5104045;28;20468;-69
2022/09/07 05:29:21;;;;;;;21.73;20.17;;;19.80;86.80;;;;;;5098637;28;20571;-71
2022/09/07 05:31:48;;;;;;;34.13;32.30;;;19.80;86.80;;;;;;5109380;28;21138;-71
2022/09/07 05:34:17;;;;;;;32.03;30.23;;;19.80;86.60;;;;;;5099738;27;20454;-74
2022/09/07 05:36:44;;;;;;;21.90;20.30;;;19.90;86.40;;;;;;5107012;28;20555;-73
2022/09/07 05:39:11;;;;;;;24.97;23.33;;;19.80;86.60;;;;;;5105734;28;20891;-75
2022/09/07 05:41:38;;;;;;;23.50;22.30;;;19.90;86.50;;;;;;5112652;27;20492;-76
2022/09/07 05:44:05;;;;;;;24.70;23.30;;;20.00;86.20;;;;;;5102996;28;20554;-73
2022/09/07 05:46:37;;;;;;;22.53;21.10;;;20.10;86.10;;;;;;5098600;28;20456;-75
2022/09/07 05:49:04;;;;;;;22.63;20.87;;;20.20;85.50;;;;;;5098015;28;20638;-75
2022/09/07 05:51:32;;;;;;;44.40;42.20;;;20.40;84.80;;;;;;5106403;27;20494;-76
2022/09/07 05:53:59;;;;;;;22.87;21.20;;;20.30;84.70;;;;;;5107425;28;20464;-75
2022/09/07 05:56:26;;;;;;;25.33;23.90;;;20.30;85.10;;;;;;5103862;27;20810;-75
2022/09/07 05:58:53;;;;;;;21.10;19.93;;;20.30;85.10;;;;;;5108248;28;20543;-75
2022/09/07 06:01:20;;;;;;;33.07;30.97;;;20.40;84.90;;;;;;5104937;28;20827;-73
2022/09/07 06:03:47;;;;;;;23.00;21.57;;;20.40;84.90;;;;;;5105388;28;20536;-77
2022/09/07 06:06:17;;;;;;;21.83;20.17;;;20.50;84.50;;;;;;5104750;28;20461;-72
2022/09/07 06:08:48;;;;;;;25.73;24.27;;;20.60;84.00;;;;;;5105664;28;20511;-78
2022/09/07 06:11:21;;;;;;;25.23;23.83;;;20.80;83.70;;;;;;5107007;28;20470;-73
2022/09/07 06:13:48;;;;;;;31.80;29.63;;;20.90;83.00;;;;;;5107507;28;20536;-74
2022/09/07 06:16:16;;;;;;;31.63;29.37;;;21.10;82.60;;;;;;5104717;28;20453;-75
2022/09/07 06:18:45;;;;;;;34.87;32.40;;;21.30;81.90;;;;;;5107792;28;20478;-74
2022/09/07 06:21:14;;;;;;;48.93;46.73;;;21.50;81.40;;;;;;5107122;28;20790;-74
2022/09/07 06:23:42;;;;;;;24.73;23.30;;;21.70;80.70;;;;;;5105153;28;20543;-72
2022/09/07 06:26:11;;;;;;;26.13;24.70;;;21.90;79.80;;;;;;5106411;28;20483;-73
2022/09/07 06:28:40;;;;;;;36.93;34.33;;;22.00;78.90;;;;;;5104761;28;20551;-74
2022/09/07 06:31:08;;;;;;;27.83;26.10;;;22.10;78.60;;;;;;5103709;28;20548;-75
2022/09/07 06:33:36;;;;;;;31.63;30.13;;;22.20;78.10;;;;;;5107925;28;21001;-72
2022/09/07 06:36:05;;;;;;;42.10;40.00;;;22.30;77.90;;;;;;5107334;28;20539;-78
2022/09/07 06:38:34;;;;;;;36.53;34.83;;;22.40;77.70;;;;;;5107289;27;20547;-73
2022/09/07 06:41:01;;;;;;;31.93;30.13;;;22.50;77.10;;;;;;5096645;28;20535;-73
2022/09/07 06:43:30;;;;;;;34.00;32.00;;;22.60;76.70;;;;;;5112075;27;20563;-73
2022/09/07 06:45:58;;;;;;;45.60;43.07;;;22.60;76.30;;;;;;5103594;28;20509;-72
2022/09/07 06:48:25;;;;;;;31.53;29.70;;;22.80;76.20;;;;;;5108582;27;20543;-70
2022/09/07 06:50:57;;;;;;;39.83;37.53;;;22.90;76.00;;;;;;5099011;28;20460;-72
2022/09/07 06:53:24;;;;;;;31.00;29.40;;;23.00;75.50;;;;;;5112538;28;20571;-73
2022/09/07 06:55:52;;;;;;;29.37;27.70;;;23.20;74.90;;;;;;5099578;27;20543;-71
2022/09/07 06:58:19;;;;;;;46.37;43.87;;;23.30;74.40;;;;;;5110235;27;20470;-71
2022/09/07 07:00:47;;;;;;;36.20;34.40;;;23.50;74.00;;;;;;5103485;27;20971;-71
2022/09/07 07:03:14;;;;;;;42.03;39.60;;;23.60;73.40;;;;;;5111624;28;21073;-73
2022/09/07 07:05:41;;;;;;;32.60;30.73;;;23.70;73.00;;;;;;5110302;27;20961;-73
2022/09/07 07:08:08;;;;;;;37.90;36.00;;;23.60;73.00;;;;;;5112265;27;20530;-71
2022/09/07 07:10:39;;;;;;;37.60;35.37;;;23.70;72.60;;;;;;5109963;28;20558;-71
2022/09/07 07:13:05;;;;;;;31.63;29.83;;;23.60;72.70;;;;;;5112500;28;20480;-70
2022/09/07 07:15:32;;;;;;;36.17;33.87;;;23.60;73.00;;;;;;5098578;28;20540;-69
2022/09/07 07:18:01;;;;;;;30.03;28.10;;;23.70;72.80;;;;;;5110092;28;20547;-69
2022/09/07 07:20:29;;;;;;;44.67;42.33;;;23.70;72.60;;;;;;5102541;28;20536;-70
2022/09/07 07:22:55;;;;;;;36.50;34.50;;;23.80;72.40;;;;;;5110233;27;21251;-70
2022/09/07 07:25:23;;;;;;;44.53;42.23;;;23.90;72.10;;;;;;5105205;27;20481;-70
2022/09/07 07:27:50;;;;;;;37.97;35.93;;;23.90;71.80;;;;;;5119598;27;20760;-71
2022/09/07 07:30:18;;;;;;;31.80;30.10;;;24.00;71.70;;;;;;5099792;28;20538;-70
2022/09/07 07:32:46;;;;;;;31.77;29.57;;;24.10;71.70;;;;;;5106897;28;21042;-70
2022/09/07 07:35:15;;;;;;;49.87;47.07;;;24.10;71.60;;;;;;5106405;27;20535;-70
2022/09/07 07:37:42;;;;;;;45.03;42.10;;;24.20;71.40;;;;;;5113444;27;21001;-69
2022/09/07 07:40:12;;;;;;;38.97;36.47;;;24.30;70.90;;;;;;5096276;28;20989;-70
2022/09/07 07:42:40;;;;;;;37.70;34.60;;;24.20;71.50;;;;;;5102612;28;20479;-71
2022/09/07 07:45:09;;;;;;;32.30;30.27;;;24.20;71.30;;;;;;5094684;28;20461;-71
2022/09/07 07:47:36;;;;;;;47.00;44.33;;;24.30;71.30;;;;;;5107578;27;21130;-71
2022/09/07 07:50:04;;;;;;;33.70;31.90;;;24.40;70.80;;;;;;5094403;28;20492;-70
2022/09/07 07:52:37;;;;;;;38.07;35.97;;;24.60;70.10;;;;;;5105309;28;20566;-72
2022/09/07 07:55:05;;;;;;;31.80;30.03;;;24.70;70.00;;;;;;5100347;27;20539;-70
2022/09/07 07:57:33;;;;;;;32.93;30.77;;;24.70;69.70;;;;;;5109580;27;20996;-71
2022/09/07 08:00:00;;;;;;;34.83;32.93;;;24.80;69.80;;;;;;5106209;28;20539;-71
2022/09/07 08:02:27;;;;;;;51.13;48.60;;;24.80;69.30;;;;;;5110608;27;20481;-71
2022/09/07 08:04:54;;;;;;;43.07;40.60;;;24.90;69.20;;;;;;5104320;28;20501;-71
2022/09/07 08:07:21;;;;;;;44.03;41.63;;;24.90;69.10;;;;;;5109298;27;21043;-72
2022/09/07 08:09:49;;;;;;;32.40;30.60;;;25.10;68.90;;;;;;5107834;28;20503;-71
2022/09/07 08:12:23;;;;;;;35.43;33.43;;;25.10;68.30;;;;;;5101514;28;20505;-71
2022/09/07 08:14:50;;;;;;;41.80;39.47;;;25.20;68.50;;;;;;5107788;28;20536;-72
2022/09/07 08:17:17;;;;;;;46.57;44.17;;;25.20;68.00;;;;;;5105512;27;20850;-72
2022/09/07 08:19:47;;;;;;;36.57;34.57;;;25.10;68.20;;;;;;5108460;28;21228;-72
2022/09/07 08:22:13;;;;;;;40.27;38.20;;;25.20;68.20;;;;;;5101502;28;20492;-71
2022/09/07 08:24:40;;;;;;;44.43;42.20;;;25.30;67.90;;;;;;5103106;27;20791;-72
2022/09/07 08:27:09;;;;;;;45.50;43.20;;;25.30;67.70;;;;;;5111205;28;20547;-72
2022/09/07 08:29:36;;;;;;;46.70;44.10;;;25.30;68.00;;;;;;5095520;27;20873;-72
2022/09/07 08:32:05;;;;;;;34.63;32.73;;;25.40;67.50;;;;;;5101410;28;20484;-70
2022/09/07 08:34:32;;;;;;;38.20;36.30;;;25.40;67.70;;;;;;5102140;28;20468;-71
2022/09/07 08:36:59;;;;;;;52.23;49.50;;;25.40;67.70;;;;;;5109919;28;20536;-71
2022/09/07 08:39:26;;;;;;;34.37;32.67;;;25.50;67.60;;;;;;5101534;27;20451;-72
2022/09/07 08:42:07;;;;;;;37.03;35.07;;;25.70;67.40;;;;;;5107699;28;20480;-72
2022/09/07 08:44:42;;;;;;;33.77;31.57;;;25.70;66.60;;;;;;5105159;27;21004;-72
2022/09/07 08:47:24;;;;;;;42.63;40.27;;;25.80;66.50;;;;;;5108605;28;20460;-73
2022/09/07 08:49:55;;;;;;;50.03;47.43;;;25.90;66.00;;;;;;5099196;27;20509;-74
2022/09/07 08:52:27;;;;;;;36.30;34.10;;;26.10;65.90;;;;;;5107614;27;20481;-71
2022/09/07 08:55:01;;;;;;;51.40;48.20;;;26.10;65.10;;;;;;5108207;27;20846;-72
2022/09/07 08:57:33;;;;;;;38.70;36.83;;;25.90;65.60;;;;;;5110808;28;20455;-74
2022/09/07 09:00:07;;;;;;;39.13;37.13;;;25.90;66.00;;;;;;5106620;28;20448;-75
2022/09/07 09:02:35;;;;;;;46.03;43.30;;;25.90;65.50;;;;;;5106265;28;20475;-73
2022/09/07 09:05:04;;;;;;;37.90;36.10;;;25.90;65.90;;;;;;5107916;28;20469;-74
2022/09/07 09:07:41;;;;;;;42.83;40.70;;;25.90;65.70;;;;;;5111105;28;20457;-74
2022/09/07 09:10:26;;;;;;;37.37;35.10;;;25.90;65.80;;;;;;5098908;28;20472;-74
2022/09/07 09:13:00;;;;;;;51.57;48.37;;;26.00;65.60;;;;;;5096216;28;20476;-75
2022/09/07 09:15:43;;;;;;;36.93;35.03;;;26.10;65.60;;;;;;5103523;28;20468;-73
2022/09/07 09:18:27;;;;;;;49.17;46.30;;;26.10;65.60;;;;;;5110235;27;20460;-75
2022/09/07 09:20:55;;;;;;;42.23;40.00;;;26.20;65.00;;;;;;5103935;27;20460;-73
2022/09/07 09:23:27;;;;;;;45.17;42.70;;;26.40;64.90;;;;;;5097061;28;20491;-73
2022/09/07 09:25:56;;;;;;;42.17;39.90;;;26.60;64.40;;;;;;5097375;28;20486;-71
2022/09/07 09:28:23;;;;;;;38.67;36.47;;;26.80;64.20;;;;;;5090761;28;20831;-73
2022/09/07 09:30:52;;;;;;;51.27;48.47;;;26.90;64.20;;;;;;5103015;27;20500;-72
2022/09/07 09:33:20;;;;;;;48.67;46.00;;;27.00;63.60;;;;;;5096116;28;20479;-72
2022/09/07 09:35:49;;;;;;;36.67;34.57;;;27.10;63.50;;;;;;5093046;28;20470;-73
2022/09/07 09:38:34;;;;;;;36.63;34.83;;;27.30;63.30;;;;;;5108512;28;20464;-73
2022/09/07 09:41:05;;;;;;;48.00;45.17;;;27.40;62.70;;;;;;5090849;28;20866;-74
2022/09/07 09:43:40;;;;;;;51.97;49.37;;;27.60;62.40;;;;;;5098550;28;20457;-75
2022/09/07 09:46:19;;;;;;;54.97;52.10;;;27.60;61.50;;;;;;5091909;28;20502;-73
2022/09/07 09:48:53;;;;;;;48.43;45.83;;;27.60;61.80;;;;;;5101480;28;20484;-79
2022/09/07 09:51:21;;;;;;;57.30;54.50;;;27.60;62.00;;;;;;5101906;28;20463;-76
2022/09/07 09:53:57;;;;;;;48.47;45.87;;;27.60;62.00;;;;;;5108247;28;20452;-76
2022/09/07 09:56:40;;;;;;;42.03;39.90;;;27.80;60.00;;;;;;5103188;28;20554;-75
2022/09/07 09:59:24;;;;;;;47.27;44.27;;;27.60;60.50;;;;;;5092014;28;20472;-75
2022/09/07 10:01:52;;;;;;;55.00;52.03;;;27.20;61.00;;;;;;5099784;28;20472;-73
2022/09/07 10:04:29;;;;;;;40.87;38.60;;;26.90;62.00;;;;;;5091668;27;20457;-72
2022/09/07 10:06:59;;;;;;;43.13;40.80;;;26.90;61.70;;;;;;5105627;28;20462;-77
2022/09/07 10:12:27;;;;;;;44.60;42.10;;;27.20;60.30;;;;;;5098277;28;20484;-74
2022/09/07 10:14:55;;;;;;;35.90;33.93;;;27.30;60.30;;;;;;5102187;28;20784;-71
2022/09/07 10:24:23;;;;;;;43.50;41.07;;;27.10;62.10;;;;;;5102229;28;20559;-73
2022/09/07 10:26:50;;;;;;;47.73;45.13;;;27.10;62.10;;;;;;5102502;28;20452;-72
2022/09/07 10:29:24;;;;;;;57.63;54.83;;;27.10;62.10;;;;;;5100838;28;20464;-71
2022/09/07 10:32:17;;;;;;;50.23;47.43;;;27.20;61.80;;;;;;5095540;28;20482;-70
2022/09/07 10:34:52;;;;;;;41.90;39.50;;;27.10;62.00;;;;;;5090445;28;20459;-71
2022/09/07 10:37:29;;;;;;;49.10;46.30;;;27.10;62.00;;;;;;5105542;28;20460;-72
2022/09/07 10:40:09;;;;;;;42.90;40.70;;;27.20;61.40;;;;;;5101912;28;20929;-71
2022/09/07 10:42:42;;;;;;;39.17;36.80;;;27.20;61.50;;;;;;5095552;28;20479;-72
2022/09/07 10:45:16;;;;;;;39.57;37.17;;;27.10;61.40;;;;;;5098753;28;20970;-73
2022/09/07 10:47:52;;;;;;;59.67;56.27;;;27.10;61.30;;;;;;5107884;28;20467;-73
2022/09/07 10:50:29;;;;;;;45.17;42.93;;;27.10;61.40;;;;;;5098512;28;20480;-73
2022/09/07 10:53:08;;;;;;;39.83;37.00;;;27.10;61.20;;;;;;5107978;28;20540;-73
2022/09/07 10:55:41;;;;;;;39.90;37.67;;;27.10;61.20;;;;;;5107216;28;20456;-73
2022/09/07 10:58:21;;;;;;;37.23;35.43;;;27.20;61.10;;;;;;5107574;28;20457;-73
2022/09/07 11:00:59;;;;;;;40.30;38.07;;;27.30;60.90;;;;;;5096940;28;20938;-73
2022/09/07 11:03:46;;;;;;;55.33;52.53;;;27.30;60.90;;;;;;5105838;28;20492;-74
2022/09/07 11:06:18;;;;;;;42.17;39.83;;;27.20;61.50;;;;;;5097744;28;20471;-73
2022/09/07 11:09:11;;;;;;;41.87;39.70;;;27.20;61.70;;;;;;5090541;28;20758;-75
2022/09/07 11:11:44;;;;;;;44.43;41.57;;;27.00;62.30;;;;;;5090548;28;20489;-74
2022/09/07 11:14:14;;;;;;;41.67;39.53;;;27.00;62.60;;;;;;5108048;28;20461;-73
2022/09/07 11:16:52;;;;;;;42.47;40.37;;;27.00;62.90;;;;;;5105613;28;20456;-73
2022/09/07 11:19:22;;;;;;;51.57;48.73;;;26.90;63.20;;;;;;5108461;28;20459;-74
2022/09/07 11:21:58;;;;;;;42.50;39.97;;;26.90;63.30;;;;;;5104065;28;20516;-74
2022/09/07 11:24:30;;;;;;;46.90;43.50;;;27.00;63.20;;;;;;5094453;28;20466;-79
2022/09/07 11:27:07;;;;;;;39.77;37.00;;;27.10;63.10;;;;;;5101586;28;20818;-72
2022/09/07 11:29:40;;;;;;;61.97;58.90;;;27.20;62.70;;;;;;5097900;27;20958;-74
2022/09/07 11:32:51;;;;;;;43.73;41.40;;;27.10;63.00;;;;;;5099146;28;20478;-71
2022/09/07 11:35:24;;;;;;;49.43;46.90;;;27.10;62.70;;;;;;5094918;28;20460;-73
2022/09/07 11:37:58;;;;;;;44.57;41.70;;;27.10;61.80;;;;;;5105234;28;20453;-76
2022/09/07 11:47:33;;;;;;;59.77;56.37;;;27.60;61.00;;;;;;5096080;28;20910;-73
2022/09/07 11:50:00;;;;;;;43.63;41.23;;;27.90;60.40;;;;;;5104538;27;20487;-75
2022/09/07 11:52:39;;;;;;;52.83;49.80;;;27.90;60.20;;;;;;5106876;28;20504;-73
2022/09/07 11:55:13;;;;;;;42.53;40.03;;;28.10;60.40;;;;;;5101981;27;20483;-71
2022/09/07 11:57:55;;;;;;;57.20;54.00;;;28.30;60.40;;;;;;5108683;27;20491;-72
2022/09/07 12:00:24;;;;;;;43.83;41.47;;;28.30;59.30;;;;;;5106573;27;20440;-70
2022/09/07 12:03:30;;;;;;;48.80;46.40;;;28.30;59.50;;;;;;5105998;28;20468;-70
2022/09/07 12:06:26;;;;;;;47.47;44.80;;;28.50;59.00;;;;;;5109240;28;20459;-71
2022/09/07 12:09:11;;;;;;;45.90;43.23;;;28.70;58.50;;;;;;5110471;27;20460;-72
2022/09/07 12:12:19;;;;;;;43.10;40.80;;;28.90;57.80;;;;;;5106404;28;20484;-72
2022/09/07 12:15:02;;;;;;;49.13;46.60;;;29.10;57.10;;;;;;5107023;28;20490;-71
2022/09/07 12:17:51;;;;;;;48.73;46.37;;;29.10;56.90;;;;;;5103820;28;20547;-70
2022/09/07 12:20:21;;;;;;;42.80;40.30;;;29.30;56.70;;;;;;5102540;27;20488;-71
2022/09/07 12:22:56;;;;;;;51.10;48.60;;;29.50;55.60;;;;;;5105541;28;20483;-71
2022/09/07 12:25:24;;;;;;;51.00;48.30;;;29.80;54.80;;;;;;5106858;28;20444;-70
2022/09/07 12:27:52;;;;;;;56.47;53.37;;;30.00;53.60;;;;;;5103727;27;20440;-71
2022/09/07 12:30:59;;;;;;;40.83;38.83;;;29.80;52.50;;;;;;5103825;28;20844;-72
2022/09/07 12:33:32;;;;;;;45.87;43.40;;;29.60;53.20;;;;;;5103686;27;20472;-71
2022/09/07 12:36:48;;;;;;;50.73;47.93;;;29.40;53.00;;;;;;5103821;27;20461;-71
2022/09/07 12:39:23;;;;;;;36.30;33.93;;;28.60;55.20;;;;;;5103422;27;20456;-70
2022/09/07 12:41:53;;;;;;;48.53;45.73;;;28.00;55.80;;;;;;5104226;27;20467;-68
2022/09/07 12:44:24;;;;;;;34.07;32.23;;;27.90;55.70;;;;;;5103369;28;20444;-73
2022/09/07 12:47:00;;;;;;;52.70;49.77;;;27.90;55.30;;;;;;5098633;28;20464;-69
2022/09/07 12:50:07;;;;;;;34.33;32.43;;;28.20;55.10;;;;;;5109639;28;20493;-71
2022/09/07 12:52:47;;;;;;;48.67;45.97;;;28.50;53.70;;;;;;5106213;27;20471;-71
2022/09/07 12:55:27;;;;;;;53.37;50.73;;;28.70;53.50;;;;;;5107307;28;20448;-71
2022/09/07 12:58:07;;;;;;;43.87;41.53;;;29.00;53.50;;;;;;5105753;28;20996;-71
2022/09/07 13:00:46;;;;;;;47.77;45.27;;;29.30;53.40;;;;;;5104987;27;20484;-71
2022/09/07 13:03:52;;;;;;;49.97;47.07;;;29.70;51.90;;;;;;5104692;28;20471;-71
2022/09/07 13:06:31;;;;;;;39.70;37.50;;;30.10;50.70;;;;;;5099305;28;20669;-71
2022/09/07 13:09:26;;;;;;;36.47;34.33;;;30.40;50.20;;;;;;5105773;28;20913;-72